createdAt,value
2022-12-01T00:01:20.456Z,-0.95
2022-12-01T00:03:48.269Z,-0.95
2022-12-01T00:06:17.905Z,-0.95
2022-12-01T00:09:06.641Z,-0.95
2022-12-01T00:11:35.181Z,-0.94
2022-12-01T00:14:03.151Z,-0.96
2022-12-01T00:16:31.777Z,-1.00
2022-12-01T00:18:59.877Z,-1.03
2022-12-01T00:21:27.815Z,-1.08
2022-12-01T00:23:57.016Z,-1.15
2022-12-01T00:26:25.480Z,-1.16
2022-12-01T00:28:54.371Z,-1.17
2022-12-01T00:31:22.241Z,-1.18
2022-12-01T00:33:50.483Z,-1.21
2022-12-01T00:36:18.449Z,-1.24
2022-12-01T00:38:46.433Z,-1.25
2022-12-01T00:41:14.428Z,-1.24
2022-12-01T00:43:42.196Z,-1.20
2022-12-01T00:46:10.102Z,-1.15
2022-12-01T00:48:37.880Z,-1.12
2022-12-01T00:51:05.763Z,-1.05
2022-12-01T00:53:33.458Z,-1.01
2022-12-01T00:56:01.264Z,-0.96
2022-12-01T00:58:29.088Z,-0.94
2022-12-01T01:00:58.137Z,-0.93
2022-12-01T01:03:26.623Z,-0.93
2022-12-01T01:05:54.449Z,-0.94
2022-12-01T01:08:22.294Z,-0.95
2022-12-01T01:10:50.484Z,-0.96
2022-12-01T01:13:18.314Z,-0.97
2022-12-01T01:15:46.192Z,-1.01
2022-12-01T01:18:13.997Z,-1.04
2022-12-01T01:20:41.775Z,-1.05
2022-12-01T01:23:09.661Z,-1.05
2022-12-01T01:25:37.400Z,-1.02
2022-12-01T01:28:05.151Z,-1.00
2022-12-01T01:30:32.986Z,-0.97
2022-12-01T01:33:00.777Z,-0.96
2022-12-01T01:35:28.594Z,-0.97
2022-12-01T01:37:56.366Z,-0.97
2022-12-01T01:40:24.159Z,-0.97
2022-12-01T01:42:52.115Z,-0.97
2022-12-01T01:45:22.444Z,-0.98
2022-12-01T01:47:52.055Z,-1.01
2022-12-01T01:50:22.742Z,-1.05
2022-12-01T01:53:11.099Z,-1.08
2022-12-01T01:55:39.110Z,-1.13
2022-12-01T01:58:08.460Z,-1.15
2022-12-01T02:00:38.000Z,-1.14
2022-12-01T02:03:06.066Z,-1.14
2022-12-01T02:05:35.791Z,-1.14
2022-12-01T02:08:04.386Z,-1.15
2022-12-01T02:10:52.611Z,-1.15
2022-12-01T02:13:20.305Z,-1.15
2022-12-01T02:15:53.980Z,-1.15
2022-12-01T02:18:25.884Z,-1.15
2022-12-01T02:21:12.819Z,-1.18
2022-12-01T02:24:00.150Z,-1.22
2022-12-01T02:26:36.474Z,-1.26
2022-12-01T02:29:13.529Z,-1.28
2022-12-01T02:31:50.941Z,-1.30
2022-12-01T02:34:27.972Z,-1.32
2022-12-01T02:37:05.809Z,-1.34
2022-12-01T02:39:35.887Z,-1.36
2022-12-01T02:42:52.434Z,-1.40
2022-12-01T02:45:26.280Z,-1.43
2022-12-01T02:47:56.109Z,-1.44
2022-12-01T02:50:25.515Z,-1.45
2022-12-01T02:52:53.483Z,-1.45
2022-12-01T02:55:21.303Z,-1.44
2022-12-01T02:57:49.049Z,-1.44
2022-12-01T03:00:17.979Z,-1.42
2022-12-01T03:02:56.965Z,-1.38
2022-12-01T03:05:40.240Z,-1.33
2022-12-01T03:08:33.090Z,-1.26
2022-12-01T03:11:01.962Z,-1.19
2022-12-01T03:13:32.754Z,-1.13
2022-12-01T03:16:12.490Z,-1.06
2022-12-01T03:18:43.722Z,-1.01
2022-12-01T03:21:20.812Z,-0.99
2022-12-01T03:23:52.031Z,-0.98
2022-12-01T03:26:22.043Z,-0.98
2022-12-01T03:28:52.388Z,-0.98
2022-12-01T03:31:22.113Z,-1.01
2022-12-01T03:33:52.755Z,-1.03
2022-12-01T03:36:34.048Z,-1.05
2022-12-01T03:39:05.014Z,-1.07
2022-12-01T03:41:39.214Z,-1.09
2022-12-01T03:44:15.467Z,-1.09
2022-12-01T03:46:59.884Z,-1.10
2022-12-01T03:49:28.295Z,-1.12
2022-12-01T03:51:56.157Z,-1.15
2022-12-01T03:54:45.379Z,-1.17
2022-12-01T03:57:28.806Z,-1.15
2022-12-01T03:59:56.848Z,-1.13
2022-12-01T04:02:27.893Z,-1.09
2022-12-01T04:04:55.912Z,-1.03
2022-12-01T04:07:23.833Z,-0.98
2022-12-01T04:09:51.823Z,-0.94
2022-12-01T04:12:32.984Z,-0.92
2022-12-01T04:15:02.433Z,-0.90
2022-12-01T04:17:30.328Z,-0.92
2022-12-01T04:19:58.135Z,-0.94
2022-12-01T04:22:26.386Z,-0.96
2022-12-01T04:24:54.140Z,-0.99
2022-12-01T04:27:22.162Z,-1.04
2022-12-01T04:29:50.042Z,-1.08
2022-12-01T04:32:18.147Z,-1.10
2022-12-01T04:34:45.867Z,-1.12
2022-12-01T04:37:13.609Z,-1.16
2022-12-01T04:39:44.041Z,-1.20
2022-12-01T04:42:12.009Z,-1.21
2022-12-01T04:44:39.758Z,-1.20
2022-12-01T04:47:07.680Z,-1.17
2022-12-01T04:49:37.211Z,-1.16
2022-12-01T04:52:05.151Z,-1.16
2022-12-01T04:54:33.071Z,-1.14
2022-12-01T04:57:00.776Z,-1.14
2022-12-01T04:59:28.620Z,-1.15
2022-12-01T05:01:56.358Z,-1.18
2022-12-01T05:04:24.173Z,-1.21
2022-12-01T05:06:54.183Z,-1.25
2022-12-01T05:09:22.063Z,-1.31
2022-12-01T05:11:49.873Z,-1.38
2022-12-01T05:14:17.717Z,-1.44
2022-12-01T05:16:45.687Z,-1.50
2022-12-01T05:19:32.426Z,-1.54
2022-12-01T05:22:00.244Z,-1.56
2022-12-01T05:24:28.159Z,-1.57
2022-12-01T05:26:56.027Z,-1.57
2022-12-01T05:29:23.779Z,-1.55
2022-12-01T05:31:51.757Z,-1.51
2022-12-01T05:34:19.689Z,-1.50
2022-12-01T05:36:47.371Z,-1.48
2022-12-01T05:39:15.113Z,-1.48
2022-12-01T05:41:42.806Z,-1.50
2022-12-01T05:44:10.729Z,-1.52
2022-12-01T05:46:38.516Z,-1.55
2022-12-01T05:49:06.180Z,-1.59
2022-12-01T05:51:34.005Z,-1.60
2022-12-01T05:54:02.023Z,-1.61
2022-12-01T05:56:31.448Z,-1.62
2022-12-01T05:58:59.176Z,-1.60
2022-12-01T06:01:27.005Z,-1.59
2022-12-01T06:03:54.995Z,-1.58
2022-12-01T06:06:22.860Z,-1.57
2022-12-01T06:08:50.769Z,-1.57
2022-12-01T06:11:18.629Z,-1.60
2022-12-01T06:13:46.364Z,-1.61
2022-12-01T06:16:14.049Z,-1.63
2022-12-01T06:18:41.871Z,-1.66
2022-12-01T06:21:09.695Z,-1.69
2022-12-01T06:23:37.583Z,-1.71
2022-12-01T06:26:05.391Z,-1.72
2022-12-01T06:28:33.188Z,-1.73
2022-12-01T06:31:03.376Z,-1.72
2022-12-01T06:33:32.090Z,-1.67
2022-12-01T06:36:00.951Z,-1.61
2022-12-01T06:38:33.037Z,-1.53
2022-12-01T06:41:05.605Z,-1.46
2022-12-01T06:43:35.796Z,-1.39
2022-12-01T06:46:06.122Z,-1.33
2022-12-01T06:48:34.650Z,-1.28
2022-12-01T06:51:02.450Z,-1.24
2022-12-01T06:53:30.492Z,-1.21
2022-12-01T06:56:01.870Z,-1.19
2022-12-01T06:58:30.309Z,-1.18
2022-12-01T07:00:59.169Z,-1.15
2022-12-01T07:03:27.277Z,-1.14
2022-12-01T07:05:58.984Z,-1.12
2022-12-01T07:08:31.995Z,-1.10
2022-12-01T07:10:59.743Z,-1.06
2022-12-01T07:13:33.044Z,-1.02
2022-12-01T07:16:03.711Z,-0.98
2022-12-01T07:18:32.422Z,-0.94
2022-12-01T07:21:04.477Z,-0.89
2022-12-01T07:23:32.258Z,-0.84
2022-12-01T07:26:01.910Z,-0.78
2022-12-01T07:28:29.759Z,-0.70
2022-12-01T07:31:01.486Z,-0.60
2022-12-01T07:33:29.235Z,-0.51
2022-12-01T07:35:57.504Z,-0.40
2022-12-01T07:38:25.218Z,-0.29
2022-12-01T07:40:52.989Z,-0.19
2022-12-01T07:43:20.771Z,-0.08
2022-12-01T07:45:49.531Z,0.01
2022-12-01T07:48:17.280Z,0.07
2022-12-01T07:50:45.048Z,0.09
2022-12-01T07:53:12.770Z,0.12
2022-12-01T07:55:40.499Z,0.13
2022-12-01T07:58:08.201Z,0.14
2022-12-01T08:00:35.966Z,0.18
2022-12-01T08:03:06.165Z,0.21
2022-12-01T08:05:34.076Z,0.24
2022-12-01T08:08:01.980Z,0.27
2022-12-01T08:10:29.899Z,0.29
2022-12-01T08:12:57.726Z,0.28
2022-12-01T08:15:25.466Z,0.27
2022-12-01T08:17:53.253Z,0.28
2022-12-01T08:20:24.102Z,0.28
2022-12-01T08:22:52.136Z,0.27
2022-12-01T08:25:19.898Z,0.26
2022-12-01T08:27:47.696Z,0.27
2022-12-01T08:30:15.523Z,0.29
2022-12-01T08:32:43.346Z,0.30
2022-12-01T08:35:11.431Z,0.33
2022-12-01T08:37:39.144Z,0.33
2022-12-01T08:40:07.173Z,0.33
2022-12-01T08:42:35.248Z,0.33
2022-12-01T08:45:03.068Z,0.34
2022-12-01T08:47:30.875Z,0.36
2022-12-01T08:49:58.664Z,0.36
2022-12-01T08:52:31.224Z,0.36
2022-12-01T08:54:59.051Z,0.36
2022-12-01T08:57:28.707Z,0.38
2022-12-01T08:59:56.474Z,0.43
2022-12-01T09:02:24.786Z,0.48
2022-12-01T09:04:52.610Z,0.55
2022-12-01T09:07:26.080Z,0.60
2022-12-01T09:09:54.371Z,0.67
2022-12-01T09:12:22.530Z,0.75
2022-12-01T09:14:50.191Z,0.81
2022-12-01T09:17:17.942Z,0.86
2022-12-01T09:19:45.693Z,0.89
2022-12-01T09:22:13.459Z,0.94
2022-12-01T09:24:41.130Z,0.97
2022-12-01T09:27:09.322Z,0.99
2022-12-01T09:29:37.051Z,1.02
2022-12-01T09:32:04.770Z,1.08
2022-12-01T09:34:32.637Z,1.15
2022-12-01T09:37:00.422Z,1.21
2022-12-01T09:39:28.347Z,1.29
2022-12-01T09:42:08.271Z,1.36
2022-12-01T09:44:40.391Z,1.48
2022-12-01T09:47:13.011Z,1.56
2022-12-01T09:50:01.105Z,1.63
2022-12-01T09:52:32.622Z,1.71
2022-12-01T09:55:01.012Z,1.78
2022-12-01T09:57:31.584Z,1.83
2022-12-01T10:00:02.563Z,1.88
2022-12-01T10:02:36.149Z,1.92
2022-12-01T10:05:05.974Z,1.96
2022-12-01T10:07:36.863Z,2.00
2022-12-01T10:10:13.298Z,2.06
2022-12-01T10:12:42.325Z,2.13
2022-12-01T10:15:13.004Z,2.21
2022-12-01T10:17:46.797Z,2.29
2022-12-01T10:20:17.317Z,2.38
2022-12-01T10:23:04.805Z,2.48
2022-12-01T10:25:51.666Z,2.59
2022-12-01T10:28:38.274Z,2.69
2022-12-01T10:31:14.889Z,2.79
2022-12-01T10:33:51.916Z,2.88
2022-12-01T10:36:19.933Z,2.97
2022-12-01T10:38:47.660Z,3.05
2022-12-01T10:41:18.788Z,3.12
2022-12-01T10:43:49.246Z,3.20
2022-12-01T10:46:38.825Z,3.27
2022-12-01T10:49:11.878Z,3.37
2022-12-01T10:51:58.123Z,3.48
2022-12-01T10:54:52.104Z,3.60
2022-12-01T10:57:19.871Z,3.71
2022-12-01T10:59:56.875Z,3.82
2022-12-01T11:02:26.709Z,3.92
2022-12-01T11:04:57.561Z,4.01
2022-12-01T11:07:29.784Z,4.09
2022-12-01T11:09:57.444Z,4.15
2022-12-01T11:12:25.238Z,4.21
2022-12-01T11:14:55.453Z,4.26
2022-12-01T11:17:28.904Z,4.33
2022-12-01T11:19:57.255Z,4.39
2022-12-01T11:22:26.623Z,4.45
2022-12-01T11:24:54.383Z,4.51
2022-12-01T11:27:23.507Z,4.57
2022-12-01T11:30:11.524Z,4.65
2022-12-01T11:32:40.051Z,4.73
2022-12-01T11:35:08.208Z,4.80
2022-12-01T11:37:38.037Z,4.86
2022-12-01T11:40:32.328Z,4.92
2022-12-01T11:43:01.966Z,4.98
2022-12-01T11:45:39.592Z,5.02
2022-12-01T11:48:18.876Z,5.07
2022-12-01T11:51:04.979Z,5.11
2022-12-01T11:53:34.609Z,5.16
2022-12-01T11:56:14.823Z,5.23
2022-12-01T11:58:43.499Z,5.27
2022-12-01T12:01:29.982Z,5.31
2022-12-01T12:04:09.768Z,5.35
2022-12-01T12:06:55.848Z,5.38
2022-12-01T12:09:23.595Z,5.41
2022-12-01T12:12:05.228Z,5.45
2022-12-01T12:14:41.611Z,5.50
2022-12-01T12:17:19.918Z,5.54
2022-12-01T12:22:44.404Z,5.62
2022-12-01T12:25:37.190Z,5.64
2022-12-01T12:28:04.890Z,5.64
2022-12-01T12:30:37.220Z,5.62
2022-12-01T12:33:08.503Z,5.60
2022-12-01T12:35:39.389Z,5.58
2022-12-01T12:38:27.334Z,5.53
2022-12-01T12:40:57.956Z,5.49
2022-12-01T12:44:01.246Z,5.48
2022-12-01T12:46:44.476Z,5.45
2022-12-01T12:49:20.395Z,5.42
2022-12-01T12:51:51.718Z,5.40
2022-12-01T12:54:19.556Z,5.36
2022-12-01T12:56:50.576Z,5.32
2022-12-01T12:59:36.707Z,5.28
2022-12-01T13:02:11.391Z,5.24
2022-12-01T13:04:45.264Z,5.18
2022-12-01T13:07:13.035Z,5.14
2022-12-01T13:09:43.846Z,5.09
2022-12-01T13:12:18.550Z,5.03
2022-12-01T13:14:48.995Z,4.97
2022-12-01T13:17:16.775Z,4.93
2022-12-01T13:19:45.956Z,4.88
2022-12-01T13:22:14.799Z,4.82
2022-12-01T13:24:42.892Z,4.78
2022-12-01T13:27:10.657Z,4.73
2022-12-01T13:29:43.972Z,4.67
2022-12-01T13:32:26.627Z,4.63
2022-12-01T13:34:54.417Z,4.59
2022-12-01T13:37:31.053Z,4.53
2022-12-01T13:40:30.998Z,4.50
2022-12-01T13:43:08.977Z,4.46
2022-12-01T13:45:40.082Z,4.41
2022-12-01T13:48:26.723Z,4.37
2022-12-01T13:50:54.491Z,4.33
2022-12-01T13:53:28.162Z,4.29
2022-12-01T13:55:55.944Z,4.23
2022-12-01T13:58:26.192Z,4.21
2022-12-01T14:01:14.063Z,4.18
2022-12-01T14:03:51.502Z,4.15
2022-12-01T14:06:22.258Z,4.13
2022-12-01T14:08:50.257Z,4.10
2022-12-01T14:11:21.037Z,4.08
2022-12-01T14:13:57.846Z,4.05
2022-12-01T14:16:26.250Z,3.97
2022-12-01T14:18:55.741Z,3.93
2022-12-01T14:21:42.728Z,3.90
2022-12-01T14:24:20.132Z,3.86
2022-12-01T14:26:49.440Z,3.80
2022-12-01T14:29:28.738Z,3.75
2022-12-01T14:32:04.600Z,3.70
2022-12-01T14:34:34.334Z,3.64
2022-12-01T14:37:05.116Z,3.58
2022-12-01T14:39:38.289Z,3.52
2022-12-01T14:42:35.492Z,3.47
2022-12-01T14:45:04.054Z,3.40
2022-12-01T14:47:43.660Z,3.32
2022-12-01T14:50:12.321Z,3.28
2022-12-01T14:53:04.352Z,3.22
2022-12-01T14:55:40.561Z,3.18
2022-12-01T14:58:14.510Z,3.15
2022-12-01T15:00:52.700Z,3.15
2022-12-01T15:03:20.716Z,3.17
2022-12-01T15:05:52.724Z,3.19
2022-12-01T15:11:20.741Z,3.25
2022-12-01T15:13:50.007Z,3.24
2022-12-01T15:16:19.965Z,3.24
2022-12-01T15:18:47.974Z,3.22
2022-12-01T15:21:15.733Z,3.19
2022-12-01T15:23:52.924Z,3.17
2022-12-01T15:26:21.587Z,3.13
2022-12-01T15:28:50.111Z,3.09
2022-12-01T15:31:18.000Z,3.04
2022-12-01T15:33:52.076Z,3.00
2022-12-01T15:36:19.850Z,2.94
2022-12-01T15:38:47.885Z,2.89
2022-12-01T15:41:28.976Z,2.86
2022-12-01T15:43:58.951Z,2.81
2022-12-01T15:46:31.214Z,2.77
2022-12-01T15:49:09.288Z,2.74
2022-12-01T15:51:37.076Z,2.68
2022-12-01T15:54:04.916Z,2.64
2022-12-01T15:56:38.036Z,2.61
2022-12-01T15:59:16.468Z,2.58
2022-12-01T16:01:45.080Z,2.56
2022-12-01T16:04:22.529Z,2.53
2022-12-01T16:06:56.604Z,2.51
2022-12-01T16:09:35.323Z,2.50
2022-12-01T16:12:23.411Z,2.50
2022-12-01T16:14:55.814Z,2.49
2022-12-01T16:17:24.253Z,2.48
2022-12-01T16:20:11.467Z,2.50
2022-12-01T16:22:39.220Z,2.53
2022-12-01T16:25:07.120Z,2.59
2022-12-01T16:27:36.845Z,2.65
2022-12-01T16:30:06.974Z,2.70
2022-12-01T16:32:39.197Z,2.77
2022-12-01T16:35:21.579Z,2.82
2022-12-01T16:37:49.363Z,2.85
2022-12-01T16:40:17.309Z,2.87
2022-12-01T16:42:45.127Z,2.89
2022-12-01T16:45:14.826Z,2.90
2022-12-01T16:47:43.270Z,2.90
2022-12-01T16:50:15.018Z,2.92
2022-12-01T16:52:44.696Z,2.92
2022-12-01T16:55:51.771Z,2.92
2022-12-01T16:58:19.559Z,2.90
2022-12-01T17:00:53.881Z,2.87
2022-12-01T17:03:24.006Z,2.85
2022-12-01T17:05:52.588Z,2.83
2022-12-01T17:08:20.677Z,2.81
2022-12-01T17:10:50.433Z,2.80
2022-12-01T17:13:19.154Z,2.78
2022-12-01T17:15:48.370Z,2.77
2022-12-01T17:18:17.014Z,2.75
2022-12-01T17:20:44.823Z,2.74
2022-12-01T17:23:12.666Z,2.72
2022-12-01T17:25:41.727Z,2.71
2022-12-01T17:28:09.510Z,2.70
2022-12-01T17:30:37.383Z,2.68
2022-12-01T17:33:05.095Z,2.68
2022-12-01T17:35:32.878Z,2.70
2022-12-01T17:38:00.655Z,2.73
2022-12-01T17:40:28.447Z,2.75
2022-12-01T17:42:56.198Z,2.78
2022-12-01T17:45:24.121Z,2.83
2022-12-01T17:47:51.807Z,2.90
2022-12-01T17:50:19.695Z,2.97
2022-12-01T17:52:47.396Z,3.02
2022-12-01T17:55:15.170Z,3.05
2022-12-01T17:57:42.900Z,3.07
2022-12-01T18:00:11.070Z,3.07
2022-12-01T18:02:38.893Z,3.08
2022-12-01T18:05:07.145Z,3.07
2022-12-01T18:07:35.003Z,3.06
2022-12-01T18:10:02.832Z,3.07
2022-12-01T18:12:30.524Z,3.07
2022-12-01T18:14:58.217Z,3.07
2022-12-01T18:17:26.198Z,3.06
2022-12-01T18:19:54.052Z,3.04
2022-12-01T18:22:22.877Z,3.03
2022-12-01T18:24:50.783Z,3.02
2022-12-01T18:27:18.604Z,3.02
2022-12-01T18:29:46.289Z,3.02
2022-12-01T18:32:14.182Z,3.02
2022-12-01T18:34:42.711Z,3.03
2022-12-01T18:37:10.459Z,3.05
2022-12-01T18:39:38.106Z,3.07
2022-12-01T18:42:06.005Z,3.09
2022-12-01T18:44:33.768Z,3.12
2022-12-01T18:47:03.769Z,3.14
2022-12-01T18:49:31.752Z,3.15
2022-12-01T18:52:00.491Z,3.16
2022-12-01T18:54:28.146Z,3.16
2022-12-01T18:56:58.842Z,3.16
2022-12-01T18:59:27.110Z,3.16
2022-12-01T19:01:55.005Z,3.13
2022-12-01T19:04:22.799Z,3.09
2022-12-01T19:06:50.608Z,3.06
2022-12-01T19:09:18.354Z,3.02
2022-12-01T19:11:46.141Z,2.99
2022-12-01T19:14:15.897Z,2.95
2022-12-01T19:16:44.408Z,2.92
2022-12-01T19:19:12.670Z,2.90
2022-12-01T19:21:40.829Z,2.88
2022-12-01T19:24:08.692Z,2.84
2022-12-01T19:26:36.601Z,2.82
2022-12-01T19:29:04.292Z,2.80
2022-12-01T19:31:32.089Z,2.78
2022-12-01T19:33:59.918Z,2.77
2022-12-01T19:36:28.176Z,2.78
2022-12-01T19:38:57.508Z,2.80
2022-12-01T19:41:25.679Z,2.82
2022-12-01T19:43:53.896Z,2.85
2022-12-01T19:46:23.174Z,2.87
2022-12-01T19:48:55.540Z,2.91
2022-12-01T19:51:25.324Z,2.95
2022-12-01T19:53:54.042Z,2.97
2022-12-01T19:56:23.196Z,2.97
2022-12-01T19:58:50.890Z,2.99
2022-12-01T20:01:19.224Z,2.99
2022-12-01T20:03:51.129Z,2.98
2022-12-01T20:06:20.139Z,2.96
2022-12-01T20:08:47.977Z,2.94
2022-12-01T20:11:16.115Z,2.92
2022-12-01T20:13:44.979Z,2.91
2022-12-01T20:16:14.342Z,2.90
2022-12-01T20:18:42.648Z,2.87
2022-12-01T20:21:16.003Z,2.84
2022-12-01T20:23:44.675Z,2.81
2022-12-01T20:26:12.563Z,2.78
2022-12-01T20:28:40.971Z,2.76
2022-12-01T20:31:10.963Z,2.72
2022-12-01T20:33:39.811Z,2.69
2022-12-01T20:36:07.967Z,2.69
2022-12-01T20:38:36.819Z,2.71
2022-12-01T20:41:05.447Z,2.75
2022-12-01T20:43:33.859Z,2.81
2022-12-01T20:46:02.073Z,2.84
2022-12-01T20:48:29.915Z,2.88
2022-12-01T20:50:59.788Z,2.91
2022-12-01T20:53:27.664Z,2.93
2022-12-01T20:55:55.908Z,2.94
2022-12-01T20:58:23.691Z,2.97
2022-12-01T21:00:51.503Z,2.98
2022-12-01T21:03:19.223Z,2.96
2022-12-01T21:05:46.959Z,2.93
2022-12-01T21:08:14.723Z,2.91
2022-12-01T21:10:47.019Z,2.87
2022-12-01T21:13:33.351Z,2.84
2022-12-01T21:16:07.001Z,2.82
2022-12-01T21:18:40.357Z,2.81
2022-12-01T21:21:34.311Z,2.78
2022-12-01T21:24:10.069Z,2.72
2022-12-01T21:26:38.745Z,2.67
2022-12-01T21:29:17.252Z,2.65
2022-12-01T21:31:45.444Z,2.65
2022-12-01T21:34:17.009Z,2.63
2022-12-01T21:36:45.992Z,2.61
2022-12-01T21:39:15.743Z,2.60
2022-12-01T21:41:43.751Z,2.59
2022-12-01T21:44:13.697Z,2.59
2022-12-01T21:46:42.545Z,2.62
2022-12-01T21:49:13.317Z,2.66
2022-12-01T21:51:41.075Z,2.72
2022-12-01T21:54:16.725Z,2.78
2022-12-01T21:56:44.585Z,2.81
2022-12-01T21:59:22.827Z,2.82
2022-12-01T22:01:54.567Z,2.82
2022-12-01T22:04:23.497Z,2.81
2022-12-01T22:06:52.316Z,2.82
2022-12-01T22:09:24.974Z,2.83
2022-12-01T22:12:12.931Z,2.83
2022-12-01T22:14:40.969Z,2.82
2022-12-01T22:17:16.304Z,2.81
2022-12-01T22:20:15.070Z,2.80
2022-12-01T22:22:42.796Z,2.77
2022-12-01T22:25:16.541Z,2.72
2022-12-01T22:27:44.293Z,2.67
2022-12-01T22:30:22.519Z,2.62
2022-12-01T22:32:58.634Z,2.58
2022-12-01T22:35:29.120Z,2.55
2022-12-01T22:38:09.427Z,2.54
2022-12-01T22:40:37.098Z,2.52
2022-12-01T22:43:17.389Z,2.53
2022-12-01T22:45:46.809Z,2.55
2022-12-01T22:48:23.796Z,2.56
2022-12-01T22:50:52.180Z,2.60
2022-12-01T22:53:30.379Z,2.62
2022-12-01T22:56:00.583Z,2.63
2022-12-01T22:58:32.036Z,2.65
2022-12-01T23:01:07.788Z,2.62
2022-12-01T23:03:36.203Z,2.58
2022-12-01T23:06:24.003Z,2.55
2022-12-01T23:08:51.706Z,2.53
2022-12-01T23:11:19.563Z,2.51
2022-12-01T23:13:47.358Z,2.51
2022-12-01T23:16:15.145Z,2.52
2022-12-01T23:18:42.961Z,2.52
2022-12-01T23:21:10.764Z,2.51
2022-12-01T23:23:38.609Z,2.49
2022-12-01T23:26:07.798Z,2.47
2022-12-01T23:28:37.046Z,2.45
2022-12-01T23:31:04.791Z,2.44
2022-12-01T23:33:33.730Z,2.44
2022-12-01T23:36:10.743Z,2.47
2022-12-01T23:38:39.886Z,2.51
2022-12-01T23:41:10.797Z,2.56
2022-12-01T23:43:40.360Z,2.62
2022-12-01T23:46:10.841Z,2.69
2022-12-01T23:48:59.122Z,2.76
2022-12-01T23:51:32.049Z,2.82
2022-12-01T23:54:01.387Z,2.88
2022-12-01T23:56:31.695Z,2.90
2022-12-01T23:59:00.893Z,2.90
